sensor_id;sensor_type;location;lat;lon;timestamp;pressure;altitude;pressure_sealevel;temperature;humidity
3697;BME280;60662;48.810;8.872;2022-08-26T06:56:07;96332.75;;;21.47;61.66
3697;BME280;60662;48.810;8.872;2022-08-26T06:57:13;96317.34;;;21.61;60.97
3697;BME280;60662;48.810;8.872;2022-08-26T06:58:17;96336.38;;;21.94;60.17
3697;BME280;60662;48.810;8.872;2022-08-26T07:09:27;96343.00;;;22.81;57.91
3697;BME280;60662;48.810;8.872;2022-08-26T07:10:34;96334.69;;;23.03;57.47
3697;BME280;60662;48.810;8.872;2022-08-26T07:11:37;96337.19;;;23.22;56.93
3697;BME280;60662;48.810;8.872;2022-08-26T07:24:04;96338.84;;;24.37;53.88
3697;BME280;60662;48.810;8.872;2022-08-26T07:33:08;96325.88;;;25.66;50.77
3697;BME280;60662;48.810;8.872;2022-08-26T07:34:11;96347.06;;;25.84;50.64
3697;BME280;60662;48.810;8.872;2022-08-26T07:35:14;96345.19;;;25.92;50.78
3697;BME280;60662;48.810;8.872;2022-08-26T07:36:17;96350.38;;;25.94;50.62
3697;BME280;60662;48.810;8.872;2022-08-26T07:44:58;96346.44;;;26.21;50.33
3697;BME280;60662;48.810;8.872;2022-08-26T07:45:59;96334.47;;;26.09;50.02
3697;BME280;60662;48.810;8.872;2022-08-26T07:47:01;96346.59;;;25.72;50.62
3697;BME280;60662;48.810;8.872;2022-08-26T07:48:03;96354.38;;;26.06;49.81
3697;BME280;60662;48.810;8.872;2022-08-26T07:49:05;96352.00;;;26.03;50.02
3697;BME280;60662;48.810;8.872;2022-08-26T07:50:07;96346.19;;;26.39;49.22
3697;BME280;60662;48.810;8.872;2022-08-26T07:58:21;96349.03;;;27.77;46.17
3697;BME280;60662;48.810;8.872;2022-08-26T07:59:23;96346.34;;;27.77;46.13
3697;BME280;60662;48.810;8.872;2022-08-26T08:00:26;96333.78;;;27.93;45.92
3697;BME280;60662;48.810;8.872;2022-08-26T08:01:28;96339.91;;;28.16;45.29
3697;BME280;60662;48.810;8.872;2022-08-26T08:02:33;96346.81;;;28.26;44.30
3697;BME280;60662;48.810;8.872;2022-08-26T08:03:35;96349.97;;;28.29;44.05
3697;BME280;60662;48.810;8.872;2022-08-26T08:04:36;96346.69;;;27.74;45.11
3697;BME280;60662;48.810;8.872;2022-08-26T08:05:41;96341.41;;;26.58;47.49
3697;BME280;60662;48.810;8.872;2022-08-26T08:06:46;96327.34;;;26.87;47.15
3697;BME280;60662;48.810;8.872;2022-08-26T08:07:48;96341.34;;;27.74;45.55
3697;BME280;60662;48.810;8.872;2022-08-26T08:08:54;96339.97;;;28.08;44.87
3697;BME280;60662;48.810;8.872;2022-08-26T08:09:56;96340.72;;;27.72;45.51
3697;BME280;60662;48.810;8.872;2022-08-26T08:19:00;96347.25;;;28.81;42.82
3697;BME280;60662;48.810;8.872;2022-08-26T08:20:05;96335.53;;;28.30;44.08
3697;BME280;60662;48.810;8.872;2022-08-26T08:21:07;96347.56;;;27.90;44.95
3697;BME280;60662;48.810;8.872;2022-08-26T08:22:23;96346.44;;;27.31;46.15
3697;BME280;60662;48.810;8.872;2022-08-26T08:23:27;96342.75;;;28.00;45.33
3697;BME280;60662;48.810;8.872;2022-08-26T08:24:30;96343.19;;;28.85;44.26
3697;BME280;60662;48.810;8.872;2022-08-26T08:25:33;96346.38;;;29.39;43.12
3697;BME280;60662;48.810;8.872;2022-08-26T08:26:35;96356.69;;;29.63;42.24
3697;BME280;60662;48.810;8.872;2022-08-26T08:27:38;96337.56;;;29.52;42.22
3697;BME280;60662;48.810;8.872;2022-08-26T08:28:40;96353.81;;;29.65;42.48
3697;BME280;60662;48.810;8.872;2022-08-26T08:29:41;96319.28;;;29.40;42.52
3697;BME280;60662;48.810;8.872;2022-08-26T08:30:43;96349.78;;;30.11;42.01
3697;BME280;60662;48.810;8.872;2022-08-26T08:31:45;96354.09;;;30.05;41.34
3697;BME280;60662;48.810;8.872;2022-08-26T08:32:58;96349.53;;;29.77;41.95
3697;BME280;60662;48.810;8.872;2022-08-26T08:43:50;96349.00;;;30.79;40.18
3697;BME280;60662;48.810;8.872;2022-08-26T08:44:55;96348.84;;;30.81;40.15
3697;BME280;60662;48.810;8.872;2022-08-26T08:46:02;96347.25;;;31.26;39.77
3697;BME280;60662;48.810;8.872;2022-08-26T08:47:16;96341.66;;;31.48;39.08
3697;BME280;60662;48.810;8.872;2022-08-26T08:48:22;96361.16;;;31.70;38.97
3697;BME280;60662;48.810;8.872;2022-08-26T08:49:29;96343.28;;;31.96;39.04
3697;BME280;60662;48.810;8.872;2022-08-26T08:50:33;96346.16;;;32.08;38.57
3697;BME280;60662;48.810;8.872;2022-08-26T08:52:05;96345.31;;;32.01;38.15
3697;BME280;60662;48.810;8.872;2022-08-26T08:58:25;96351.50;;;30.25;40.89
3697;BME280;60662;48.810;8.872;2022-08-26T08:59:33;96347.69;;;30.13;41.48
3697;BME280;60662;48.810;8.872;2022-08-26T09:00:48;96339.66;;;30.61;40.65
3697;BME280;60662;48.810;8.872;2022-08-26T09:03:42;96342.41;;;30.95;39.87
3697;BME280;60662;48.810;8.872;2022-08-26T09:05:00;96332.94;;;31.46;40.22
3697;BME280;60662;48.810;8.872;2022-08-26T09:06:05;96337.91;;;31.83;39.27
3697;BME280;60662;48.810;8.872;2022-08-26T09:07:22;96331.06;;;31.73;39.90
3697;BME280;60662;48.810;8.872;2022-08-26T09:08:30;96335.09;;;32.30;38.73
3697;BME280;60662;48.810;8.872;2022-08-26T09:09:46;96341.63;;;32.54;38.96
3697;BME280;60662;48.810;8.872;2022-08-26T09:22:07;96333.31;;;32.55;37.51
3697;BME280;60662;48.810;8.872;2022-08-26T09:23:10;96334.03;;;32.83;37.85
3697;BME280;60662;48.810;8.872;2022-08-26T09:24:11;96336.03;;;32.94;37.36
3697;BME280;60662;48.810;8.872;2022-08-26T09:25:18;96333.03;;;32.70;37.56
3697;BME280;60662;48.810;8.872;2022-08-26T09:27:43;96332.38;;;32.30;38.44
3697;BME280;60662;48.810;8.872;2022-08-26T09:28:53;96320.84;;;32.02;38.06
3697;BME280;60662;48.810;8.872;2022-08-26T09:29:57;96334.13;;;31.97;38.14
3697;BME280;60662;48.810;8.872;2022-08-26T09:32:22;96332.44;;;30.27;40.88
3697;BME280;60662;48.810;8.872;2022-08-26T09:33:29;96316.75;;;31.13;39.34
3697;BME280;60662;48.810;8.872;2022-08-26T09:34:31;96321.19;;;30.58;40.16
3697;BME280;60662;48.810;8.872;2022-08-26T09:35:36;96324.78;;;30.99;40.46
3697;BME280;60662;48.810;8.872;2022-08-26T09:36:48;96327.28;;;31.95;38.92
3697;BME280;60662;48.810;8.872;2022-08-26T09:37:51;96324.84;;;31.46;38.81
3697;BME280;60662;48.810;8.872;2022-08-26T09:38:53;96319.66;;;31.31;39.33
3697;BME280;60662;48.810;8.872;2022-08-26T09:40:11;96320.84;;;32.02;38.83
3697;BME280;60662;48.810;8.872;2022-08-26T09:41:24;96327.41;;;32.79;37.28
3697;BME280;60662;48.810;8.872;2022-08-26T09:42:26;96322.78;;;33.18;36.61
3697;BME280;60662;48.810;8.872;2022-08-26T09:43:28;96324.41;;;33.19;36.65
3697;BME280;60662;48.810;8.872;2022-08-26T09:44:30;96321.81;;;33.37;35.89
3697;BME280;60662;48.810;8.872;2022-08-26T09:45:33;96315.00;;;32.96;35.87
3697;BME280;60662;48.810;8.872;2022-08-26T09:54:25;96301.34;;;33.16;36.26
3697;BME280;60662;48.810;8.872;2022-08-26T09:55:30;96302.53;;;33.52;36.03
3697;BME280;60662;48.810;8.872;2022-08-26T09:56:35;96298.22;;;33.89;35.25
3697;BME280;60662;48.810;8.872;2022-08-26T09:58:49;96299.47;;;33.67;34.58
3697;BME280;60662;48.810;8.872;2022-08-26T09:59:52;96286.84;;;32.40;35.81
3697;BME280;60662;48.810;8.872;2022-08-26T10:00:56;96298.19;;;32.94;35.91
3697;BME280;60662;48.810;8.872;2022-08-26T10:02:32;96292.63;;;31.91;37.45
3697;BME280;60662;48.810;8.872;2022-08-26T10:03:36;96293.38;;;33.21;36.08
3697;BME280;60662;48.810;8.872;2022-08-26T10:04:39;96294.38;;;33.96;35.36
3697;BME280;60662;48.810;8.872;2022-08-26T10:05:56;96290.59;;;34.53;34.64
3697;BME280;60662;48.810;8.872;2022-08-26T10:07:05;96283.31;;;32.39;36.69
3697;BME280;60662;48.810;8.872;2022-08-26T10:08:21;96278.34;;;33.58;35.86
3697;BME280;60662;48.810;8.872;2022-08-26T10:09:24;96270.81;;;34.53;34.44
3697;BME280;60662;48.810;8.872;2022-08-26T10:10:32;96280.88;;;35.06;33.67
3697;BME280;60662;48.810;8.872;2022-08-26T10:11:42;96273.94;;;35.34;33.32
3697;BME280;60662;48.810;8.872;2022-08-26T10:15:42;96273.38;;;35.91;32.46
3697;BME280;60662;48.810;8.872;2022-08-26T10:17:03;96267.94;;;32.72;35.64
3697;BME280;60662;48.810;8.872;2022-08-26T10:18:17;96270.28;;;31.17;38.23
3697;BME280;60662;48.810;8.872;2022-08-26T10:19:48;96270.38;;;32.87;36.53
3697;BME280;60662;48.810;8.872;2022-08-26T10:21:06;96269.03;;;32.96;36.38
3697;BME280;60662;48.810;8.872;2022-08-26T10:40:23;96270.50;;;35.15;31.79
3697;BME280;60662;48.810;8.872;2022-08-26T10:41:31;96263.06;;;35.10;32.37
3697;BME280;60662;48.810;8.872;2022-08-26T10:42:39;96269.91;;;35.01;32.93
3697;BME280;60662;48.810;8.872;2022-08-26T10:43:47;96269.97;;;35.48;33.04
3697;BME280;60662;48.810;8.872;2022-08-26T10:44:54;96266.53;;;35.89;32.65
3697;BME280;60662;48.810;8.872;2022-08-26T10:53:01;96269.72;;;36.38;30.42
3697;BME280;60662;48.810;8.872;2022-08-26T10:59:00;96265.16;;;34.96;33.10
3697;BME280;60662;48.810;8.872;2022-08-26T11:00:23;96269.25;;;35.53;32.31
3697;BME280;60662;48.810;8.872;2022-08-26T11:02:56;96251.22;;;34.01;35.01
3697;BME280;60662;48.810;8.872;2022-08-26T11:05:16;96244.72;;;34.21;34.41
3697;BME280;60662;48.810;8.872;2022-08-26T11:06:24;96216.75;;;34.70;33.35
3697;BME280;60662;48.810;8.872;2022-08-26T11:08:44;96241.69;;;34.90;33.53
3697;BME280;60662;48.810;8.872;2022-08-26T11:09:50;96243.84;;;35.95;31.66
3697;BME280;60662;48.810;8.872;2022-08-26T11:11:59;96236.75;;;36.35;31.65
3697;BME280;60662;48.810;8.872;2022-08-26T11:13:10;96236.50;;;35.01;32.93
3697;BME280;60662;48.810;8.872;2022-08-26T11:16:41;96240.84;;;36.95;30.70
3697;BME280;60662;48.810;8.872;2022-08-26T11:18:46;96243.81;;;37.84;29.19
3697;BME280;60662;48.810;8.872;2022-08-26T11:29:04;96235.31;;;37.24;29.58
3697;BME280;60662;48.810;8.872;2022-08-26T11:34:58;96228.44;;;38.39;28.46
3697;BME280;60662;48.810;8.872;2022-08-26T11:36:00;96225.78;;;38.00;28.66
3697;BME280;60662;48.810;8.872;2022-08-26T11:37:14;96217.31;;;37.23;29.19
3697;BME280;60662;48.810;8.872;2022-08-26T11:38:26;96222.88;;;37.11;29.60
3697;BME280;60662;48.810;8.872;2022-08-26T11:39:34;96220.50;;;36.98;29.10
3697;BME280;60662;48.810;8.872;2022-08-26T11:41:01;96222.22;;;37.21;28.84
3697;BME280;60662;48.810;8.872;2022-08-26T11:42:22;96219.22;;;37.39;28.55
3697;BME280;60662;48.810;8.872;2022-08-26T11:43:29;96209.03;;;36.96;29.94
3697;BME280;60662;48.810;8.872;2022-08-26T11:44:39;96221.38;;;36.11;30.03
3697;BME280;60662;48.810;8.872;2022-08-26T11:46:02;96213.28;;;35.64;30.87
3697;BME280;60662;48.810;8.872;2022-08-26T11:47:05;96215.28;;;35.92;30.24
3697;BME280;60662;48.810;8.872;2022-08-26T11:49:21;96218.94;;;35.74;30.36
3697;BME280;60662;48.810;8.872;2022-08-26T11:50:25;96211.19;;;34.04;32.24
3697;BME280;60662;48.810;8.872;2022-08-26T11:51:27;96209.03;;;33.75;32.64
3697;BME280;60662;48.810;8.872;2022-08-26T11:52:32;96193.59;;;33.76;32.90
3697;BME280;60662;48.810;8.872;2022-08-26T11:53:36;96199.56;;;34.03;32.80
3697;BME280;60662;48.810;8.872;2022-08-26T11:54:38;96207.66;;;34.64;31.95
3697;BME280;60662;48.810;8.872;2022-08-26T11:55:41;96206.06;;;35.82;30.14
3697;BME280;60662;48.810;8.872;2022-08-26T11:56:46;96212.91;;;37.00;29.80
3697;BME280;60662;48.810;8.872;2022-08-26T11:57:52;96212.84;;;37.51;28.41
3697;BME280;60662;48.810;8.872;2022-08-26T12:04:03;96223.88;;;36.01;29.83
3697;BME280;60662;48.810;8.872;2022-08-26T12:05:06;96210.84;;;35.39;29.97
3697;BME280;60662;48.810;8.872;2022-08-26T12:07:24;96219.72;;;33.89;31.59
3697;BME280;60662;48.810;8.872;2022-08-26T12:08:31;96221.97;;;33.92;31.87
3697;BME280;60662;48.810;8.872;2022-08-26T12:09:37;96223.81;;;33.54;32.27
3697;BME280;60662;48.810;8.872;2022-08-26T12:11:33;96223.13;;;33.40;32.42
3697;BME280;60662;48.810;8.872;2022-08-26T12:12:35;96212.09;;;33.42;32.62
3697;BME280;60662;48.810;8.872;2022-08-26T12:13:39;96228.03;;;33.50;32.11
3697;BME280;60662;48.810;8.872;2022-08-26T12:14:43;96224.88;;;33.34;32.27
3697;BME280;60662;48.810;8.872;2022-08-26T12:15:58;96223.22;;;33.27;32.49
3697;BME280;60662;48.810;8.872;2022-08-26T12:18:20;96217.34;;;33.11;32.25
3697;BME280;60662;48.810;8.872;2022-08-26T12:19:32;96222.41;;;33.89;31.99
3697;BME280;60662;48.810;8.872;2022-08-26T12:20:38;96214.75;;;34.34;31.07
3697;BME280;60662;48.810;8.872;2022-08-26T12:21:48;96220.91;;;33.93;31.40
3697;BME280;60662;48.810;8.872;2022-08-26T12:22:50;96208.66;;;33.34;32.11
3697;BME280;60662;48.810;8.872;2022-08-26T12:23:54;96213.59;;;33.37;31.74
3697;BME280;60662;48.810;8.872;2022-08-26T12:25:00;96214.59;;;34.29;31.08
3697;BME280;60662;48.810;8.872;2022-08-26T12:33:59;96209.25;;;33.92;31.65
3697;BME280;60662;48.810;8.872;2022-08-26T12:35:02;96212.06;;;32.40;33.75
3697;BME280;60662;48.810;8.872;2022-08-26T12:36:22;96207.38;;;32.16;34.35
3697;BME280;60662;48.810;8.872;2022-08-26T13:02:37;96173.69;;;30.54;36.73
3697;BME280;60662;48.810;8.872;2022-08-26T13:03:44;96180.09;;;30.86;36.26
3697;BME280;60662;48.810;8.872;2022-08-26T13:04:46;96174.09;;;30.91;36.12
3697;BME280;60662;48.810;8.872;2022-08-26T13:05:47;96178.03;;;31.15;36.18
3697;BME280;60662;48.810;8.872;2022-08-26T13:07:13;96177.41;;;31.13;36.14
3697;BME280;60662;48.810;8.872;2022-08-26T13:08:23;96181.31;;;31.17;36.14
3697;BME280;60662;48.810;8.872;2022-08-26T13:10:35;96174.09;;;30.91;36.13
3697;BME280;60662;48.810;8.872;2022-08-26T13:12:41;96161.22;;;30.66;36.28
3697;BME280;60662;48.810;8.872;2022-08-26T13:13:43;96175.50;;;30.46;36.56
3697;BME280;60662;48.810;8.872;2022-08-26T13:14:47;96165.34;;;30.28;37.53
3697;BME280;60662;48.810;8.872;2022-08-26T13:15:49;96165.19;;;30.50;36.86
3697;BME280;60662;48.810;8.872;2022-08-26T13:16:51;96148.75;;;30.32;37.25
3697;BME280;60662;48.810;8.872;2022-08-26T13:45:35;96138.38;;;30.22;39.93
3697;BME280;60662;48.810;8.872;2022-08-26T13:46:41;96134.66;;;30.23;39.65
3697;BME280;60662;48.810;8.872;2022-08-26T13:47:42;96149.56;;;30.12;40.53
3697;BME280;60662;48.810;8.872;2022-08-26T13:48:45;96133.31;;;29.85;40.96
3697;BME280;60662;48.810;8.872;2022-08-26T13:49:46;96148.72;;;29.98;40.69
3697;BME280;60662;48.810;8.872;2022-08-26T13:50:48;96140.84;;;30.03;40.42
3697;BME280;60662;48.810;8.872;2022-08-26T13:58:04;96150.81;;;29.61;41.82
3697;BME280;60662;48.810;8.872;2022-08-26T13:59:06;96143.50;;;29.90;42.04
3697;BME280;60662;48.810;8.872;2022-08-26T14:00:08;96155.13;;;29.90;42.22
3697;BME280;60662;48.810;8.872;2022-08-26T14:25:35;96126.22;;;29.57;43.48
3697;BME280;60662;48.810;8.872;2022-08-26T14:26:40;96119.38;;;29.55;43.30
3697;BME280;60662;48.810;8.872;2022-08-26T14:34:06;96134.88;;;29.53;42.99
3697;BME280;60662;48.810;8.872;2022-08-26T14:35:15;96130.97;;;29.62;43.28
3697;BME280;60662;48.810;8.872;2022-08-26T14:56:42;96137.88;;;27.49;43.57
3697;BME280;60662;48.810;8.872;2022-08-26T14:57:44;96135.81;;;27.36;43.70
3697;BME280;60662;48.810;8.872;2022-08-26T14:58:45;96118.38;;;27.41;43.76
3697;BME280;60662;48.810;8.872;2022-08-26T14:59:47;96133.97;;;27.52;43.77
3697;BME280;60662;48.810;8.872;2022-08-26T15:00:54;96146.84;;;27.57;43.60
3697;BME280;60662;48.810;8.872;2022-08-26T15:01:56;96134.97;;;27.36;43.39
3697;BME280;60662;48.810;8.872;2022-08-26T15:53:36;96214.97;;;21.94;73.93
3697;BME280;60662;48.810;8.872;2022-08-26T15:54:37;96212.84;;;21.98;74.07
3697;BME280;60662;48.810;8.872;2022-08-26T15:55:41;96216.66;;;21.95;73.29
